Terminal Aerodrome Forecast
Issued by NWS Albany, NY

Current Version | Previous Version | Text Only | Print | Product List | Glossary On
Versions: 1 2 3 4 5 6 7 8 9 10 11 12 13 14 15 16 17 18 19 20
000 FTUS41 KALY 060520 TAFALB TAF KALB 060520Z 0606/0706 00000KT P6SM SCT060 SCT250 TEMPO 0607/0611 5SM BR BKN060 BKN200 FM061300 VRB03KT P6SM FEW030 SCT250 FM061800 17007KT P6SM SCT040 SCT100 SCT200 FM070000 17005KT P6SM SCT035 BKN050=

USA.gov is the U.S. government's official web portal to all federal, state and local government web resources and services.